sensor_id;sensor_type;location;lat;lon;timestamp;temperature;humidity
814;DHT22;389;48.710;9.392;2023-07-13T00:00:28;21.50;87.20
814;DHT22;389;48.710;9.392;2023-07-13T00:02:54;21.50;87.30
814;DHT22;389;48.710;9.392;2023-07-13T00:05:20;21.40;87.10
814;DHT22;389;48.710;9.392;2023-07-13T00:07:46;21.40;87.60
814;DHT22;389;48.710;9.392;2023-07-13T00:10:12;21.40;88.20
814;DHT22;389;48.710;9.392;2023-07-13T00:12:38;21.30;88.70
814;DHT22;389;48.710;9.392;2023-07-13T00:15:11;21.40;90.10
814;DHT22;389;48.710;9.392;2023-07-13T00:17:37;21.40;90.10
814;DHT22;389;48.710;9.392;2023-07-13T00:20:05;21.40;90.30
814;DHT22;389;48.710;9.392;2023-07-13T00:22:35;21.50;90.40
814;DHT22;389;48.710;9.392;2023-07-13T00:25:00;21.50;90.20
814;DHT22;389;48.710;9.392;2023-07-13T00:27:26;21.50;90.10
814;DHT22;389;48.710;9.392;2023-07-13T00:29:52;21.60;87.50
814;DHT22;389;48.710;9.392;2023-07-13T00:32:18;21.60;86.20
814;DHT22;389;48.710;9.392;2023-07-13T00:34:48;21.60;86.10
814;DHT22;389;48.710;9.392;2023-07-13T00:37:14;21.60;86.40
814;DHT22;389;48.710;9.392;2023-07-13T00:39:39;21.60;86.80
814;DHT22;389;48.710;9.392;2023-07-13T00:42:05;21.70;86.00
814;DHT22;389;48.710;9.392;2023-07-13T00:44:31;21.50;84.20
814;DHT22;389;48.710;9.392;2023-07-13T00:46:57;21.60;83.40
814;DHT22;389;48.710;9.392;2023-07-13T00:49:26;21.60;83.60
814;DHT22;389;48.710;9.392;2023-07-13T00:51:59;21.60;82.10
814;DHT22;389;48.710;9.392;2023-07-13T00:54:30;21.60;81.90
814;DHT22;389;48.710;9.392;2023-07-13T00:57:00;21.50;81.00
814;DHT22;389;48.710;9.392;2023-07-13T00:59:27;21.50;81.00
814;DHT22;389;48.710;9.392;2023-07-13T01:02:01;21.50;81.50
814;DHT22;389;48.710;9.392;2023-07-13T01:04:27;21.50;82.10
814;DHT22;389;48.710;9.392;2023-07-13T01:06:54;21.50;82.10
814;DHT22;389;48.710;9.392;2023-07-13T01:09:29;21.40;80.60
814;DHT22;389;48.710;9.392;2023-07-13T01:11:57;21.30;80.90
814;DHT22;389;48.710;9.392;2023-07-13T01:14:25;21.30;81.10
814;DHT22;389;48.710;9.392;2023-07-13T01:16:51;21.20;80.90
814;DHT22;389;48.710;9.392;2023-07-13T01:19:33;21.20;81.20
814;DHT22;389;48.710;9.392;2023-07-13T01:22:02;21.10;81.30
814;DHT22;389;48.710;9.392;2023-07-13T01:24:28;21.00;81.60
814;DHT22;389;48.710;9.392;2023-07-13T01:26:54;20.90;82.10
814;DHT22;389;48.710;9.392;2023-07-13T01:29:23;20.80;82.60
814;DHT22;389;48.710;9.392;2023-07-13T01:32:02;20.70;83.20
814;DHT22;389;48.710;9.392;2023-07-13T01:34:27;20.60;83.80
814;DHT22;389;48.710;9.392;2023-07-13T01:36:53;20.50;84.20
814;DHT22;389;48.710;9.392;2023-07-13T01:39:32;20.50;84.50
814;DHT22;389;48.710;9.392;2023-07-13T01:41:58;20.40;84.30
814;DHT22;389;48.710;9.392;2023-07-13T01:44:24;20.20;84.40
814;DHT22;389;48.710;9.392;2023-07-13T01:46:50;20.20;84.80
814;DHT22;389;48.710;9.392;2023-07-13T01:49:20;20.10;85.00
814;DHT22;389;48.710;9.392;2023-07-13T01:51:46;20.00;85.10
814;DHT22;389;48.710;9.392;2023-07-13T01:54:11;19.90;85.50
814;DHT22;389;48.710;9.392;2023-07-13T01:56:37;19.80;85.60
814;DHT22;389;48.710;9.392;2023-07-13T01:59:02;19.80;86.30
814;DHT22;389;48.710;9.392;2023-07-13T02:01:28;19.70;87.00
814;DHT22;389;48.710;9.392;2023-07-13T02:03:54;19.60;87.90
814;DHT22;389;48.710;9.392;2023-07-13T02:06:19;19.50;89.40
814;DHT22;389;48.710;9.392;2023-07-13T02:08:45;19.40;90.10
814;DHT22;389;48.710;9.392;2023-07-13T02:11:10;19.30;90.60
814;DHT22;389;48.710;9.392;2023-07-13T02:13:36;19.30;91.20
814;DHT22;389;48.710;9.392;2023-07-13T02:16:02;19.30;91.50
814;DHT22;389;48.710;9.392;2023-07-13T02:18:27;19.20;91.70
814;DHT22;389;48.710;9.392;2023-07-13T02:20:53;19.20;92.20
814;DHT22;389;48.710;9.392;2023-07-13T02:23:19;19.00;92.20
814;DHT22;389;48.710;9.392;2023-07-13T02:25:45;19.00;92.40
814;DHT22;389;48.710;9.392;2023-07-13T02:28:11;19.00;92.60
814;DHT22;389;48.710;9.392;2023-07-13T02:30:36;18.90;92.60
814;DHT22;389;48.710;9.392;2023-07-13T02:33:03;18.90;92.70
814;DHT22;389;48.710;9.392;2023-07-13T02:35:29;18.90;92.60
814;DHT22;389;48.710;9.392;2023-07-13T02:37:55;18.90;92.40
814;DHT22;389;48.710;9.392;2023-07-13T02:40:20;19.00;92.00
814;DHT22;389;48.710;9.392;2023-07-13T02:42:46;19.10;91.90
814;DHT22;389;48.710;9.392;2023-07-13T02:45:11;19.00;91.90
814;DHT22;389;48.710;9.392;2023-07-13T02:47:40;19.00;92.00
814;DHT22;389;48.710;9.392;2023-07-13T02:50:07;19.00;92.20
814;DHT22;389;48.710;9.392;2023-07-13T02:52:32;19.00;92.30
814;DHT22;389;48.710;9.392;2023-07-13T02:54:58;19.10;92.30
814;DHT22;389;48.710;9.392;2023-07-13T02:57:23;19.10;92.20
814;DHT22;389;48.710;9.392;2023-07-13T02:59:49;19.10;92.30
814;DHT22;389;48.710;9.392;2023-07-13T03:02:15;19.10;92.40
814;DHT22;389;48.710;9.392;2023-07-13T03:04:41;19.10;92.60
814;DHT22;389;48.710;9.392;2023-07-13T03:07:07;19.10;92.70
814;DHT22;389;48.710;9.392;2023-07-13T03:09:34;19.10;92.70
814;DHT22;389;48.710;9.392;2023-07-13T03:12:00;19.00;92.70
814;DHT22;389;48.710;9.392;2023-07-13T03:14:26;19.00;92.70
814;DHT22;389;48.710;9.392;2023-07-13T03:16:51;18.90;92.70
814;DHT22;389;48.710;9.392;2023-07-13T03:19:17;18.80;92.70
814;DHT22;389;48.710;9.392;2023-07-13T03:21:43;18.80;92.80
814;DHT22;389;48.710;9.392;2023-07-13T03:24:09;18.70;92.90
814;DHT22;389;48.710;9.392;2023-07-13T03:26:35;18.60;92.90
814;DHT22;389;48.710;9.392;2023-07-13T03:29:00;18.60;93.00
814;DHT22;389;48.710;9.392;2023-07-13T03:31:29;18.60;93.40
814;DHT22;389;48.710;9.392;2023-07-13T03:33:56;18.60;93.50
814;DHT22;389;48.710;9.392;2023-07-13T03:36:31;18.50;93.50
814;DHT22;389;48.710;9.392;2023-07-13T03:38:59;18.60;93.60
814;DHT22;389;48.710;9.392;2023-07-13T03:41:26;18.60;93.60
814;DHT22;389;48.710;9.392;2023-07-13T03:43:52;18.60;93.60
814;DHT22;389;48.710;9.392;2023-07-13T03:46:18;18.60;93.60
814;DHT22;389;48.710;9.392;2023-07-13T03:48:45;18.70;93.70
814;DHT22;389;48.710;9.392;2023-07-13T03:51:12;18.70;93.70
814;DHT22;389;48.710;9.392;2023-07-13T03:53:41;18.70;92.90
814;DHT22;389;48.710;9.392;2023-07-13T03:56:07;18.60;92.40
814;DHT22;389;48.710;9.392;2023-07-13T03:58:39;18.70;92.40
814;DHT22;389;48.710;9.392;2023-07-13T04:01:07;18.70;92.30
814;DHT22;389;48.710;9.392;2023-07-13T04:03:33;18.90;92.20
814;DHT22;389;48.710;9.392;2023-07-13T04:06:00;18.80;92.10
814;DHT22;389;48.710;9.392;2023-07-13T04:08:27;18.90;92.20
814;DHT22;389;48.710;9.392;2023-07-13T04:10:53;19.00;92.20
814;DHT22;389;48.710;9.392;2023-07-13T04:13:19;19.10;92.20
814;DHT22;389;48.710;9.392;2023-07-13T04:15:51;19.10;92.10
814;DHT22;389;48.710;9.392;2023-07-13T04:18:17;19.30;92.40
814;DHT22;389;48.710;9.392;2023-07-13T04:20:45;19.20;92.60
814;DHT22;389;48.710;9.392;2023-07-13T04:23:11;19.40;92.80
814;DHT22;389;48.710;9.392;2023-07-13T04:25:37;19.30;92.90
814;DHT22;389;48.710;9.392;2023-07-13T04:28:04;19.40;93.10
814;DHT22;389;48.710;9.392;2023-07-13T04:30:29;19.40;93.20
814;DHT22;389;48.710;9.392;2023-07-13T04:32:59;19.50;93.20
814;DHT22;389;48.710;9.392;2023-07-13T04:35:25;19.50;93.10
814;DHT22;389;48.710;9.392;2023-07-13T04:37:50;19.50;93.00
814;DHT22;389;48.710;9.392;2023-07-13T04:40:20;19.60;93.00
814;DHT22;389;48.710;9.392;2023-07-13T04:42:46;19.60;92.50
814;DHT22;389;48.710;9.392;2023-07-13T04:45:14;19.60;92.20
814;DHT22;389;48.710;9.392;2023-07-13T04:47:40;19.60;92.20
814;DHT22;389;48.710;9.392;2023-07-13T04:50:07;19.60;92.30
814;DHT22;389;48.710;9.392;2023-07-13T04:52:33;19.70;92.30
814;DHT22;389;48.710;9.392;2023-07-13T04:54:59;19.70;92.20
814;DHT22;389;48.710;9.392;2023-07-13T04:57:26;19.70;92.30
814;DHT22;389;48.710;9.392;2023-07-13T04:59:52;19.80;92.30
814;DHT22;389;48.710;9.392;2023-07-13T05:02:18;19.80;92.20
814;DHT22;389;48.710;9.392;2023-07-13T05:04:49;19.90;92.20
814;DHT22;389;48.710;9.392;2023-07-13T05:07:16;20.00;92.20
814;DHT22;389;48.710;9.392;2023-07-13T05:09:41;20.00;92.10
814;DHT22;389;48.710;9.392;2023-07-13T05:12:08;20.10;92.00
814;DHT22;389;48.710;9.392;2023-07-13T05:14:35;20.10;92.00
814;DHT22;389;48.710;9.392;2023-07-13T05:17:00;20.20;92.20
814;DHT22;389;48.710;9.392;2023-07-13T05:19:26;20.20;92.20
814;DHT22;389;48.710;9.392;2023-07-13T05:21:52;20.30;92.20
814;DHT22;389;48.710;9.392;2023-07-13T05:24:18;20.40;92.30
814;DHT22;389;48.710;9.392;2023-07-13T05:26:43;20.50;92.30
814;DHT22;389;48.710;9.392;2023-07-13T05:29:09;20.60;92.10
814;DHT22;389;48.710;9.392;2023-07-13T05:31:36;20.80;92.00
814;DHT22;389;48.710;9.392;2023-07-13T05:34:01;20.90;91.90
814;DHT22;389;48.710;9.392;2023-07-13T05:36:27;21.10;91.60
814;DHT22;389;48.710;9.392;2023-07-13T05:38:52;21.20;91.30
814;DHT22;389;48.710;9.392;2023-07-13T05:41:18;21.30;91.10
814;DHT22;389;48.710;9.392;2023-07-13T05:43:44;21.50;90.90
814;DHT22;389;48.710;9.392;2023-07-13T05:46:13;21.60;90.70
814;DHT22;389;48.710;9.392;2023-07-13T05:48:39;21.80;90.40
814;DHT22;389;48.710;9.392;2023-07-13T05:51:04;21.90;89.70
814;DHT22;389;48.710;9.392;2023-07-13T05:53:30;22.00;89.30
814;DHT22;389;48.710;9.392;2023-07-13T05:55:56;22.10;88.80
814;DHT22;389;48.710;9.392;2023-07-13T05:58:21;22.20;88.20
814;DHT22;389;48.710;9.392;2023-07-13T06:00:48;22.30;87.70
814;DHT22;389;48.710;9.392;2023-07-13T06:03:14;22.40;86.60
814;DHT22;389;48.710;9.392;2023-07-13T06:05:42;22.40;85.80
814;DHT22;389;48.710;9.392;2023-07-13T06:08:08;22.50;85.20
814;DHT22;389;48.710;9.392;2023-07-13T06:10:36;22.50;85.40
814;DHT22;389;48.710;9.392;2023-07-13T06:13:09;22.60;83.20
814;DHT22;389;48.710;9.392;2023-07-13T06:15:35;22.60;81.20
814;DHT22;389;48.710;9.392;2023-07-13T06:18:00;22.50;82.40
814;DHT22;389;48.710;9.392;2023-07-13T06:20:26;22.60;82.90
814;DHT22;389;48.710;9.392;2023-07-13T06:22:51;22.80;82.30
814;DHT22;389;48.710;9.392;2023-07-13T06:25:17;22.90;81.70
814;DHT22;389;48.710;9.392;2023-07-13T06:27:43;23.10;79.50
814;DHT22;389;48.710;9.392;2023-07-13T06:30:09;23.40;78.60
814;DHT22;389;48.710;9.392;2023-07-13T06:32:35;23.80;77.30
814;DHT22;389;48.710;9.392;2023-07-13T06:35:01;24.30;76.20
814;DHT22;389;48.710;9.392;2023-07-13T06:37:27;24.80;74.30
814;DHT22;389;48.710;9.392;2023-07-13T06:39:53;25.30;72.40
814;DHT22;389;48.710;9.392;2023-07-13T06:42:19;25.80;69.80
814;DHT22;389;48.710;9.392;2023-07-13T06:44:44;26.30;66.90
814;DHT22;389;48.710;9.392;2023-07-13T06:47:10;26.70;64.40
814;DHT22;389;48.710;9.392;2023-07-13T06:49:36;27.10;63.10
814;DHT22;389;48.710;9.392;2023-07-13T06:52:08;27.40;61.50
814;DHT22;389;48.710;9.392;2023-07-13T06:54:41;27.60;60.20
814;DHT22;389;48.710;9.392;2023-07-13T06:57:06;27.90;58.90
814;DHT22;389;48.710;9.392;2023-07-13T06:59:32;28.00;58.40
814;DHT22;389;48.710;9.392;2023-07-13T07:01:58;28.30;58.30
814;DHT22;389;48.710;9.392;2023-07-13T07:04:24;28.70;57.80
814;DHT22;389;48.710;9.392;2023-07-13T07:06:49;29.00;57.50
814;DHT22;389;48.710;9.392;2023-07-13T07:09:15;29.30;56.90
814;DHT22;389;48.710;9.392;2023-07-13T07:11:42;29.50;56.20
814;DHT22;389;48.710;9.392;2023-07-13T07:14:08;29.50;55.20
814;DHT22;389;48.710;9.392;2023-07-13T07:16:33;29.20;54.80
814;DHT22;389;48.710;9.392;2023-07-13T07:18:59;29.00;54.70
814;DHT22;389;48.710;9.392;2023-07-13T07:21:24;28.60;54.70
814;DHT22;389;48.710;9.392;2023-07-13T07:23:51;28.20;54.00
814;DHT22;389;48.710;9.392;2023-07-13T07:26:17;27.80;53.80
814;DHT22;389;48.710;9.392;2023-07-13T07:28:43;27.40;54.60
814;DHT22;389;48.710;9.392;2023-07-13T07:31:09;27.10;55.10
814;DHT22;389;48.710;9.392;2023-07-13T07:33:34;26.90;56.10
814;DHT22;389;48.710;9.392;2023-07-13T07:36:01;26.60;56.90
814;DHT22;389;48.710;9.392;2023-07-13T07:38:28;26.40;56.60
814;DHT22;389;48.710;9.392;2023-07-13T07:40:54;26.30;56.80
814;DHT22;389;48.710;9.392;2023-07-13T07:43:19;26.10;55.50
814;DHT22;389;48.710;9.392;2023-07-13T07:45:45;26.20;55.50
814;DHT22;389;48.710;9.392;2023-07-13T07:48:12;26.10;54.20
814;DHT22;389;48.710;9.392;2023-07-13T07:50:38;26.10;54.20
814;DHT22;389;48.710;9.392;2023-07-13T07:53:04;26.00;53.40
814;DHT22;389;48.710;9.392;2023-07-13T07:55:35;26.00;53.10
814;DHT22;389;48.710;9.392;2023-07-13T07:58:01;25.90;52.80
814;DHT22;389;48.710;9.392;2023-07-13T08:00:27;25.90;53.30
814;DHT22;389;48.710;9.392;2023-07-13T08:02:55;25.90;53.10
814;DHT22;389;48.710;9.392;2023-07-13T08:05:21;25.90;53.20
814;DHT22;389;48.710;9.392;2023-07-13T08:07:46;25.80;53.90
814;DHT22;389;48.710;9.392;2023-07-13T08:10:12;25.80;53.90
814;DHT22;389;48.710;9.392;2023-07-13T08:12:39;25.80;53.30
814;DHT22;389;48.710;9.392;2023-07-13T08:15:06;25.80;53.40
814;DHT22;389;48.710;9.392;2023-07-13T08:17:34;25.80;53.70
814;DHT22;389;48.710;9.392;2023-07-13T08:19:59;25.80;53.90
814;DHT22;389;48.710;9.392;2023-07-13T08:22:25;25.90;53.60
814;DHT22;389;48.710;9.392;2023-07-13T08:24:51;25.80;53.00
814;DHT22;389;48.710;9.392;2023-07-13T08:27:22;26.10;53.00
814;DHT22;389;48.710;9.392;2023-07-13T08:29:49;26.10;51.90
814;DHT22;389;48.710;9.392;2023-07-13T08:32:14;26.10;51.60
814;DHT22;389;48.710;9.392;2023-07-13T08:34:40;26.10;51.10
814;DHT22;389;48.710;9.392;2023-07-13T08:37:06;26.00;50.90
814;DHT22;389;48.710;9.392;2023-07-13T08:39:32;26.00;51.40
814;DHT22;389;48.710;9.392;2023-07-13T08:42:22;25.90;51.10
814;DHT22;389;48.710;9.392;2023-07-13T08:47:44;25.90;51.40
814;DHT22;389;48.710;9.392;2023-07-13T08:50:19;26.00;51.60
814;DHT22;389;48.710;9.392;2023-07-13T08:52:47;26.10;51.70
814;DHT22;389;48.710;9.392;2023-07-13T08:55:31;25.90;51.60
814;DHT22;389;48.710;9.392;2023-07-13T08:58:09;25.70;51.90
814;DHT22;389;48.710;9.392;2023-07-13T09:00:56;25.60;52.40
814;DHT22;389;48.710;9.392;2023-07-13T09:03:35;25.50;52.50
814;DHT22;389;48.710;9.392;2023-07-13T09:06:02;25.40;52.50
814;DHT22;389;48.710;9.392;2023-07-13T09:08:53;25.20;53.00
814;DHT22;389;48.710;9.392;2023-07-13T09:14:26;25.30;53.50
814;DHT22;389;48.710;9.392;2023-07-13T09:16:58;25.50;53.40
814;DHT22;389;48.710;9.392;2023-07-13T09:19:28;25.70;53.00
814;DHT22;389;48.710;9.392;2023-07-13T09:21:56;26.00;53.00
814;DHT22;389;48.710;9.392;2023-07-13T09:25:23;26.10;51.60
814;DHT22;389;48.710;9.392;2023-07-13T09:27:29;26.30;52.00
814;DHT22;389;48.710;9.392;2023-07-13T09:30:04;26.50;51.70
814;DHT22;389;48.710;9.392;2023-07-13T09:32:36;26.70;50.90
814;DHT22;389;48.710;9.392;2023-07-13T09:35:12;26.90;50.70
814;DHT22;389;48.710;9.392;2023-07-13T09:40:11;27.00;50.50
814;DHT22;389;48.710;9.392;2023-07-13T09:42:38;26.90;50.80
814;DHT22;389;48.710;9.392;2023-07-13T09:45:04;26.70;50.90
814;DHT22;389;48.710;9.392;2023-07-13T09:47:37;26.50;50.70
814;DHT22;389;48.710;9.392;2023-07-13T09:50:09;26.50;51.00
814;DHT22;389;48.710;9.392;2023-07-13T09:52:47;26.40;51.30
814;DHT22;389;48.710;9.392;2023-07-13T09:55:29;26.40;50.90
814;DHT22;389;48.710;9.392;2023-07-13T09:57:54;26.50;51.20
814;DHT22;389;48.710;9.392;2023-07-13T10:00:26;26.40;51.30
814;DHT22;389;48.710;9.392;2023-07-13T10:03:05;26.40;50.90
814;DHT22;389;48.710;9.392;2023-07-13T10:05:38;26.50;51.10
814;DHT22;389;48.710;9.392;2023-07-13T10:08:04;26.60;50.70
814;DHT22;389;48.710;9.392;2023-07-13T10:10:32;26.70;50.60
814;DHT22;389;48.710;9.392;2023-07-13T10:12:58;26.90;51.00
814;DHT22;389;48.710;9.392;2023-07-13T10:15:25;27.00;50.20
814;DHT22;389;48.710;9.392;2023-07-13T10:17:52;27.30;50.70
814;DHT22;389;48.710;9.392;2023-07-13T10:20:21;27.60;50.80
814;DHT22;389;48.710;9.392;2023-07-13T10:23:05;27.90;50.70
814;DHT22;389;48.710;9.392;2023-07-13T10:25:38;28.20;49.80
814;DHT22;389;48.710;9.392;2023-07-13T10:28:16;28.30;49.20
814;DHT22;389;48.710;9.392;2023-07-13T10:30:47;28.30;49.30
814;DHT22;389;48.710;9.392;2023-07-13T10:33:14;28.40;48.80
814;DHT22;389;48.710;9.392;2023-07-13T10:35:43;28.40;48.50
814;DHT22;389;48.710;9.392;2023-07-13T10:38:15;28.50;49.30
814;DHT22;389;48.710;9.392;2023-07-13T10:41:10;28.60;48.90
814;DHT22;389;48.710;9.392;2023-07-13T10:43:44;28.70;48.40
814;DHT22;389;48.710;9.392;2023-07-13T10:46:17;28.80;47.60
814;DHT22;389;48.710;9.392;2023-07-13T10:48:48;28.80;47.50
814;DHT22;389;48.710;9.392;2023-07-13T10:51:16;28.80;48.00
814;DHT22;389;48.710;9.392;2023-07-13T10:53:42;28.80;48.00
814;DHT22;389;48.710;9.392;2023-07-13T10:56:29;28.70;47.80
814;DHT22;389;48.710;9.392;2023-07-13T10:59:17;28.60;47.60
814;DHT22;389;48.710;9.392;2023-07-13T11:02:09;28.70;47.90
814;DHT22;389;48.710;9.392;2023-07-13T11:04:47;28.80;47.70
814;DHT22;389;48.710;9.392;2023-07-13T11:07:23;29.00;48.20
814;DHT22;389;48.710;9.392;2023-07-13T11:09:54;29.00;48.50
814;DHT22;389;48.710;9.392;2023-07-13T11:19:53;29.20;46.80
814;DHT22;389;48.710;9.392;2023-07-13T11:22:25;29.30;46.90
814;DHT22;389;48.710;9.392;2023-07-13T11:27:41;29.40;47.10
814;DHT22;389;48.710;9.392;2023-07-13T11:32:51;29.30;46.90
814;DHT22;389;48.710;9.392;2023-07-13T11:35:27;29.20;46.20
814;DHT22;389;48.710;9.392;2023-07-13T11:37:53;29.20;46.50
814;DHT22;389;48.710;9.392;2023-07-13T11:40:25;29.20;46.50
814;DHT22;389;48.710;9.392;2023-07-13T11:42:59;29.20;46.90
814;DHT22;389;48.710;9.392;2023-07-13T11:45:30;29.10;46.70
814;DHT22;389;48.710;9.392;2023-07-13T11:47:56;29.00;46.80
814;DHT22;389;48.710;9.392;2023-07-13T11:50:25;28.90;47.00
814;DHT22;389;48.710;9.392;2023-07-13T11:52:52;28.90;45.80
814;DHT22;389;48.710;9.392;2023-07-13T11:55:21;28.80;46.80
814;DHT22;389;48.710;9.392;2023-07-13T11:57:54;28.90;46.70
814;DHT22;389;48.710;9.392;2023-07-13T12:00:25;28.90;46.40
814;DHT22;389;48.710;9.392;2023-07-13T12:02:54;29.00;46.10
814;DHT22;389;48.710;9.392;2023-07-13T12:05:21;29.20;45.70
814;DHT22;389;48.710;9.392;2023-07-13T12:07:48;29.30;45.60
814;DHT22;389;48.710;9.392;2023-07-13T12:12:53;29.60;44.80
814;DHT22;389;48.710;9.392;2023-07-13T12:15:21;29.60;44.90
814;DHT22;389;48.710;9.392;2023-07-13T12:17:48;29.60;44.20
814;DHT22;389;48.710;9.392;2023-07-13T12:20:35;29.80;44.80
814;DHT22;389;48.710;9.392;2023-07-13T12:23:05;29.80;45.60
814;DHT22;389;48.710;9.392;2023-07-13T12:25:31;29.80;45.20
814;DHT22;389;48.710;9.392;2023-07-13T12:27:57;29.60;45.70
814;DHT22;389;48.710;9.392;2023-07-13T12:30:27;29.50;45.90
814;DHT22;389;48.710;9.392;2023-07-13T12:33:00;29.20;46.20
814;DHT22;389;48.710;9.392;2023-07-13T12:35:28;29.10;46.30
814;DHT22;389;48.710;9.392;2023-07-13T12:37:57;28.80;46.20
814;DHT22;389;48.710;9.392;2023-07-13T12:40:31;28.50;46.30
814;DHT22;389;48.710;9.392;2023-07-13T12:42:58;28.30;46.60
814;DHT22;389;48.710;9.392;2023-07-13T12:45:26;28.20;46.40
814;DHT22;389;48.710;9.392;2023-07-13T12:47:59;28.10;46.40
814;DHT22;389;48.710;9.392;2023-07-13T12:50:38;28.00;47.20
814;DHT22;389;48.710;9.392;2023-07-13T12:53:19;27.90;47.10
814;DHT22;389;48.710;9.392;2023-07-13T12:55:57;28.00;46.80
814;DHT22;389;48.710;9.392;2023-07-13T12:58:29;28.10;46.90
814;DHT22;389;48.710;9.392;2023-07-13T13:00:58;28.30;46.80
814;DHT22;389;48.710;9.392;2023-07-13T13:08:45;29.00;46.00
814;DHT22;389;48.710;9.392;2023-07-13T13:11:11;29.10;46.10
814;DHT22;389;48.710;9.392;2023-07-13T13:13:36;29.20;45.60
814;DHT22;389;48.710;9.392;2023-07-13T13:16:12;29.30;45.30
814;DHT22;389;48.710;9.392;2023-07-13T13:19:05;29.20;44.80
814;DHT22;389;48.710;9.392;2023-07-13T13:21:38;29.30;45.10
814;DHT22;389;48.710;9.392;2023-07-13T13:24:12;29.30;45.10
814;DHT22;389;48.710;9.392;2023-07-13T13:26:38;29.50;45.10
814;DHT22;389;48.710;9.392;2023-07-13T13:29:14;29.60;44.70
814;DHT22;389;48.710;9.392;2023-07-13T13:31:40;29.60;44.80
814;DHT22;389;48.710;9.392;2023-07-13T13:34:31;29.60;44.80
814;DHT22;389;48.710;9.392;2023-07-13T13:36:57;29.60;44.80
814;DHT22;389;48.710;9.392;2023-07-13T13:39:36;29.50;45.10
814;DHT22;389;48.710;9.392;2023-07-13T13:42:02;29.50;44.40
814;DHT22;389;48.710;9.392;2023-07-13T13:44:28;29.40;45.10
814;DHT22;389;48.710;9.392;2023-07-13T13:46:55;29.40;45.20
814;DHT22;389;48.710;9.392;2023-07-13T13:49:31;29.20;44.60
814;DHT22;389;48.710;9.392;2023-07-13T13:51:57;29.20;45.20
814;DHT22;389;48.710;9.392;2023-07-13T13:54:30;29.10;44.60
814;DHT22;389;48.710;9.392;2023-07-13T13:57:33;29.10;44.80
814;DHT22;389;48.710;9.392;2023-07-13T13:59:59;29.20;45.40
814;DHT22;389;48.710;9.392;2023-07-13T14:02:29;29.20;44.70
814;DHT22;389;48.710;9.392;2023-07-13T14:05:01;29.20;44.40
814;DHT22;389;48.710;9.392;2023-07-13T14:07:27;29.30;44.50
814;DHT22;389;48.710;9.392;2023-07-13T14:10:14;29.30;44.00
814;DHT22;389;48.710;9.392;2023-07-13T14:12:44;29.30;44.30
814;DHT22;389;48.710;9.392;2023-07-13T14:15:20;29.20;44.30
814;DHT22;389;48.710;9.392;2023-07-13T14:17:46;29.20;44.30
814;DHT22;389;48.710;9.392;2023-07-13T14:20:16;29.10;44.10
814;DHT22;389;48.710;9.392;2023-07-13T14:22:41;29.00;44.10
814;DHT22;389;48.710;9.392;2023-07-13T14:25:14;28.90;43.90
814;DHT22;389;48.710;9.392;2023-07-13T14:27:43;28.90;44.20
814;DHT22;389;48.710;9.392;2023-07-13T14:30:17;28.90;44.20
814;DHT22;389;48.710;9.392;2023-07-13T14:32:43;28.90;43.80
814;DHT22;389;48.710;9.392;2023-07-13T14:35:18;28.90;44.50
814;DHT22;389;48.710;9.392;2023-07-13T14:37:45;29.00;44.50
814;DHT22;389;48.710;9.392;2023-07-13T14:40:21;29.00;44.00
814;DHT22;389;48.710;9.392;2023-07-13T14:42:48;29.10;43.80
814;DHT22;389;48.710;9.392;2023-07-13T14:45:15;29.10;43.70
814;DHT22;389;48.710;9.392;2023-07-13T14:47:42;29.10;43.40
814;DHT22;389;48.710;9.392;2023-07-13T14:50:14;29.20;43.60
814;DHT22;389;48.710;9.392;2023-07-13T14:52:41;29.30;43.60
814;DHT22;389;48.710;9.392;2023-07-13T14:55:15;29.40;43.60
814;DHT22;389;48.710;9.392;2023-07-13T14:57:40;29.40;43.40
814;DHT22;389;48.710;9.392;2023-07-13T15:00:14;29.30;43.20
814;DHT22;389;48.710;9.392;2023-07-13T15:02:44;29.40;43.60
814;DHT22;389;48.710;9.392;2023-07-13T15:05:19;29.30;43.10
814;DHT22;389;48.710;9.392;2023-07-13T15:07:46;29.30;43.70
814;DHT22;389;48.710;9.392;2023-07-13T15:10:17;29.10;43.40
814;DHT22;389;48.710;9.392;2023-07-13T15:12:43;29.00;43.70
814;DHT22;389;48.710;9.392;2023-07-13T15:15:09;28.90;44.10
814;DHT22;389;48.710;9.392;2023-07-13T15:17:40;28.80;44.20
814;DHT22;389;48.710;9.392;2023-07-13T15:22:40;28.80;43.90
814;DHT22;389;48.710;9.392;2023-07-13T15:25:22;28.80;43.70
814;DHT22;389;48.710;9.392;2023-07-13T15:27:57;28.80;43.80
814;DHT22;389;48.710;9.392;2023-07-13T15:30:26;28.90;43.80
814;DHT22;389;48.710;9.392;2023-07-13T15:32:52;29.00;44.00
814;DHT22;389;48.710;9.392;2023-07-13T15:35:20;29.10;43.70
814;DHT22;389;48.710;9.392;2023-07-13T15:37:48;29.10;43.80
814;DHT22;389;48.710;9.392;2023-07-13T15:40:14;29.10;44.10
814;DHT22;389;48.710;9.392;2023-07-13T15:42:41;29.10;44.50
814;DHT22;389;48.710;9.392;2023-07-13T15:45:22;29.00;44.10
814;DHT22;389;48.710;9.392;2023-07-13T15:47:49;29.00;44.20
814;DHT22;389;48.710;9.392;2023-07-13T15:50:21;28.80;44.30
814;DHT22;389;48.710;9.392;2023-07-13T15:52:52;28.70;44.60
814;DHT22;389;48.710;9.392;2023-07-13T15:55:19;28.70;44.70
814;DHT22;389;48.710;9.392;2023-07-13T15:57:51;28.60;44.70
814;DHT22;389;48.710;9.392;2023-07-13T16:00:23;28.50;44.90
814;DHT22;389;48.710;9.392;2023-07-13T16:02:50;28.30;45.10
814;DHT22;389;48.710;9.392;2023-07-13T16:05:17;28.30;45.40
814;DHT22;389;48.710;9.392;2023-07-13T16:07:47;28.20;45.30
814;DHT22;389;48.710;9.392;2023-07-13T16:10:51;28.30;45.20
814;DHT22;389;48.710;9.392;2023-07-13T16:13:16;28.40;45.50
814;DHT22;389;48.710;9.392;2023-07-13T16:15:44;28.50;45.30
814;DHT22;389;48.710;9.392;2023-07-13T16:18:11;28.50;45.00
814;DHT22;389;48.710;9.392;2023-07-13T16:20:38;28.60;44.90
814;DHT22;389;48.710;9.392;2023-07-13T16:23:04;28.50;44.40
814;DHT22;389;48.710;9.392;2023-07-13T16:25:30;28.30;45.00
814;DHT22;389;48.710;9.392;2023-07-13T16:27:56;28.30;45.20
814;DHT22;389;48.710;9.392;2023-07-13T16:30:29;28.40;45.20
814;DHT22;389;48.710;9.392;2023-07-13T16:32:58;28.40;45.00
814;DHT22;389;48.710;9.392;2023-07-13T16:35:29;28.40;45.00
814;DHT22;389;48.710;9.392;2023-07-13T16:37:55;28.30;45.10
814;DHT22;389;48.710;9.392;2023-07-13T16:40:27;28.20;45.00
814;DHT22;389;48.710;9.392;2023-07-13T16:42:55;28.10;44.80
814;DHT22;389;48.710;9.392;2023-07-13T16:45:22;28.10;45.00
814;DHT22;389;48.710;9.392;2023-07-13T16:47:50;28.10;45.10
814;DHT22;389;48.710;9.392;2023-07-13T16:50:22;28.20;45.00
814;DHT22;389;48.710;9.392;2023-07-13T16:52:49;28.10;45.10
814;DHT22;389;48.710;9.392;2023-07-13T16:55:19;28.10;45.40
814;DHT22;389;48.710;9.392;2023-07-13T16:57:57;28.10;45.40
814;DHT22;389;48.710;9.392;2023-07-13T17:00:30;28.10;45.00
814;DHT22;389;48.710;9.392;2023-07-13T17:02:59;28.20;44.80
814;DHT22;389;48.710;9.392;2023-07-13T17:05:29;28.20;44.80
814;DHT22;389;48.710;9.392;2023-07-13T17:07:56;28.20;44.50
814;DHT22;389;48.710;9.392;2023-07-13T17:10:22;28.30;45.30
814;DHT22;389;48.710;9.392;2023-07-13T17:12:49;28.30;45.00
814;DHT22;389;48.710;9.392;2023-07-13T17:15:16;28.40;44.90
814;DHT22;389;48.710;9.392;2023-07-13T17:17:42;28.40;44.80